Alakanuk, AK

11:38 PM AKDT on July 27, 2014 (GMT -0800)
Chevak (PAVA) Elev 75 ft | 61.54 °N, 165.60 °W | Change Station

Current weather conditions updated 41 minutes ago

Overcast
Overcast
49 °F
Feels Like 49 °F
N
17
Wind Variable Wind from West
Gusts 23 mph

Tomorrow is forecast to be Warmer than today.

Today
High -- | Low -- °F
--% Chance of Precip.
Yesterday
High -- | Low -- °F
Precip. -- in
6:05 AM 0:02 AM
New Moon, 2% visible
Pressure 30.12 in
Visibility 10.0 miles
Clouds Overcast 800 ft
Dew Point 46 °F
Humidity 90%
Rainfall 0.00 in
Snow Depth Not available.
UV 0 out of 12
Pollen Not available.
Air Quality Not available.
Flu Activity Not available.
METAR PAVA 280657Z AUTO 27015G20KT 10SM OVC008 09/08 A3011 RMK AO2 SLP199 T00940078

More Conditions Fewer Conditions

Pressure 30.12 in
Visibility 10.0 miles
Clouds Overcast 800 ft
Dew Point 46 °F
Humidity 90%
Rainfall 0.00 in
Snow Depth Not available.
UV 0 out of 12
Pollen Not available.
Air Quality Not available.
Flu Activity Not available.
METAR PAVA 280657Z AUTO 27015G20KT 10SM OVC008 09/08 A3011 RMK AO2 SLP199 T00940078

More Conditions Fewer Conditions

10-Day Weather Forecast

Almanac

Astronomy

Jul. 27, 2014 Rise Set
Actual Time 6:05 AM AKDT 12:02 AM AKDT
Civil Twilight 4:40 AM AKDT 1:25 AM AKDT
Nautical Twilight Sun does not rise Sun does not rise
Astronomical Twilight Sun does not rise Sun does not rise
Moon 7:49 AM AKDT (7/27) 11:22 PM AKDT (7/27)
Length of Visible Light 20h 45m
Length of Day
17h 57m
Tomorrow will be 5m 41s shorter.
New Moon, 2% of the Moon is Illuminated
Jul 28
New Moon
Aug 3
First Quarter
Aug 10
Full
Aug 17
Last Quarter
Aug 25
New

Community

WunderPhotos

Upload Photos

1,738,292 photos uploaded!

Nearby

Snow Depth

Station Depth Elevation
Rocky Point 2 in 500 ft
Pargon Creek 0 in 300 ft
Susitna Valley High 2 in 375 ft
Mcneil Canyon 1 in 1320 ft
Point Mackenzie 1 in 200 ft

Earthquake Activity

City Distance Mag. Time & Date
No recent earthquake activity has been reported nearby.
Minimum magnitude displayed is 2.5.

Coastal Water Temperatures

Place Temperature
No Stations Reporting

Nearby Weather Stations

There are no personal weather stations in this area.